sensor_id;sensor_type;location;lat;lon;timestamp;P1;durP1;ratioP1;P2;durP2;ratioP2
43580;SDS011;29175;51.030;4.606;2022-11-20T00:00:03;53.65;;;19.83;;
43580;SDS011;29175;51.030;4.606;2022-11-20T00:02:29;51.35;;;19.35;;
43580;SDS011;29175;51.030;4.606;2022-11-20T00:04:55;49.55;;;19.85;;
43580;SDS011;29175;51.030;4.606;2022-11-20T00:07:20;47.92;;;20.98;;
43580;SDS011;29175;51.030;4.606;2022-11-20T00:09:47;48.13;;;20.08;;
43580;SDS011;29175;51.030;4.606;2022-11-20T00:12:13;51.95;;;20.60;;
43580;SDS011;29175;51.030;4.606;2022-11-20T00:14:38;52.28;;;21.05;;
43580;SDS011;29175;51.030;4.606;2022-11-20T00:17:06;45.30;;;19.95;;
43580;SDS011;29175;51.030;4.606;2022-11-20T00:19:32;50.63;;;19.63;;
43580;SDS011;29175;51.030;4.606;2022-11-20T00:21:58;48.25;;;19.73;;
43580;SDS011;29175;51.030;4.606;2022-11-20T00:24:25;48.28;;;19.77;;
43580;SDS011;29175;51.030;4.606;2022-11-20T00:26:51;48.90;;;19.85;;
43580;SDS011;29175;51.030;4.606;2022-11-20T00:29:16;52.92;;;20.75;;
43580;SDS011;29175;51.030;4.606;2022-11-20T00:31:43;52.22;;;20.63;;
43580;SDS011;29175;51.030;4.606;2022-11-20T00:34:09;47.95;;;20.08;;
43580;SDS011;29175;51.030;4.606;2022-11-20T00:36:35;51.80;;;19.92;;
43580;SDS011;29175;51.030;4.606;2022-11-20T00:39:03;46.80;;;20.05;;
43580;SDS011;29175;51.030;4.606;2022-11-20T00:41:31;49.20;;;19.98;;
43580;SDS011;29175;51.030;4.606;2022-11-20T00:43:59;43.22;;;20.55;;
43580;SDS011;29175;51.030;4.606;2022-11-20T00:46:26;46.75;;;19.63;;
43580;SDS011;29175;51.030;4.606;2022-11-20T00:48:53;47.60;;;20.17;;
43580;SDS011;29175;51.030;4.606;2022-11-20T00:53:48;47.08;;;20.02;;
43580;SDS011;29175;51.030;4.606;2022-11-20T00:56:17;46.30;;;20.40;;
43580;SDS011;29175;51.030;4.606;2022-11-20T01:04:04;45.10;;;19.00;;
43580;SDS011;29175;51.030;4.606;2022-11-20T01:06:31;46.85;;;19.40;;
43580;SDS011;29175;51.030;4.606;2022-11-20T01:09:05;50.10;;;20.63;;
43580;SDS011;29175;51.030;4.606;2022-11-20T01:11:41;50.38;;;20.77;;
43580;SDS011;29175;51.030;4.606;2022-11-20T01:14:10;50.47;;;21.60;;
43580;SDS011;29175;51.030;4.606;2022-11-20T01:16:41;47.55;;;19.63;;
43580;SDS011;29175;51.030;4.606;2022-11-20T01:19:14;44.80;;;19.00;;
43580;SDS011;29175;51.030;4.606;2022-11-20T01:21:42;51.42;;;19.35;;
43580;SDS011;29175;51.030;4.606;2022-11-20T01:24:13;47.45;;;20.40;;
43580;SDS011;29175;51.030;4.606;2022-11-20T01:26:41;48.20;;;19.25;;
43580;SDS011;29175;51.030;4.606;2022-11-20T01:29:13;49.75;;;19.33;;
43580;SDS011;29175;51.030;4.606;2022-11-20T01:31:42;49.92;;;20.27;;
43580;SDS011;29175;51.030;4.606;2022-11-20T01:34:13;50.40;;;20.40;;
43580;SDS011;29175;51.030;4.606;2022-11-20T01:36:40;46.08;;;20.30;;
43580;SDS011;29175;51.030;4.606;2022-11-20T01:39:07;47.97;;;19.80;;
43580;SDS011;29175;51.030;4.606;2022-11-20T01:41:37;51.65;;;19.80;;
43580;SDS011;29175;51.030;4.606;2022-11-20T01:44:39;49.80;;;19.30;;
43580;SDS011;29175;51.030;4.606;2022-11-20T01:47:37;43.42;;;19.58;;
43580;SDS011;29175;51.030;4.606;2022-11-20T01:52:58;52.83;;;20.70;;
43580;SDS011;29175;51.030;4.606;2022-11-20T01:55:31;43.25;;;18.88;;
43580;SDS011;29175;51.030;4.606;2022-11-20T01:58:01;47.17;;;19.92;;
43580;SDS011;29175;51.030;4.606;2022-11-20T02:00:29;62.58;;;22.35;;
43580;SDS011;29175;51.030;4.606;2022-11-20T02:02:56;53.80;;;21.63;;
43580;SDS011;29175;51.030;4.606;2022-11-20T02:05:28;55.15;;;21.05;;
43580;SDS011;29175;51.030;4.606;2022-11-20T02:08:00;52.88;;;21.55;;
43580;SDS011;29175;51.030;4.606;2022-11-20T02:10:28;44.25;;;19.52;;
43580;SDS011;29175;51.030;4.606;2022-11-20T02:12:54;58.58;;;21.25;;
43580;SDS011;29175;51.030;4.606;2022-11-20T02:15:39;52.38;;;20.90;;
43580;SDS011;29175;51.030;4.606;2022-11-20T02:18:07;46.90;;;20.00;;
43580;SDS011;29175;51.030;4.606;2022-11-20T02:20:35;62.00;;;23.03;;
43580;SDS011;29175;51.030;4.606;2022-11-20T02:25:55;49.40;;;20.45;;
43580;SDS011;29175;51.030;4.606;2022-11-20T02:28:25;51.15;;;21.27;;
43580;SDS011;29175;51.030;4.606;2022-11-20T02:30:51;55.38;;;22.35;;
43580;SDS011;29175;51.030;4.606;2022-11-20T02:33:17;45.72;;;19.77;;
43580;SDS011;29175;51.030;4.606;2022-11-20T02:35:43;57.47;;;21.48;;
43580;SDS011;29175;51.030;4.606;2022-11-20T02:38:11;53.95;;;21.17;;
43580;SDS011;29175;51.030;4.606;2022-11-20T02:40:38;58.30;;;21.75;;
43580;SDS011;29175;51.030;4.606;2022-11-20T02:43:04;63.08;;;21.92;;
43580;SDS011;29175;51.030;4.606;2022-11-20T02:45:30;57.88;;;21.50;;
43580;SDS011;29175;51.030;4.606;2022-11-20T02:47:56;56.72;;;21.05;;
43580;SDS011;29175;51.030;4.606;2022-11-20T02:50:22;56.42;;;21.77;;
43580;SDS011;29175;51.030;4.606;2022-11-20T02:52:47;48.78;;;20.10;;
43580;SDS011;29175;51.030;4.606;2022-11-20T02:55:13;53.08;;;22.45;;
43580;SDS011;29175;51.030;4.606;2022-11-20T02:57:40;56.05;;;22.17;;
43580;SDS011;29175;51.030;4.606;2022-11-20T03:00:06;51.25;;;20.38;;
43580;SDS011;29175;51.030;4.606;2022-11-20T03:02:34;63.25;;;23.08;;
43580;SDS011;29175;51.030;4.606;2022-11-20T03:05:01;56.78;;;21.88;;
43580;SDS011;29175;51.030;4.606;2022-11-20T03:07:27;55.10;;;21.88;;
43580;SDS011;29175;51.030;4.606;2022-11-20T03:09:53;54.80;;;22.90;;
43580;SDS011;29175;51.030;4.606;2022-11-20T03:12:19;57.55;;;23.85;;
43580;SDS011;29175;51.030;4.606;2022-11-20T03:14:45;51.53;;;22.52;;
43580;SDS011;29175;51.030;4.606;2022-11-20T03:17:11;51.38;;;21.95;;
43580;SDS011;29175;51.030;4.606;2022-11-20T03:19:37;63.60;;;24.17;;
43580;SDS011;29175;51.030;4.606;2022-11-20T03:22:02;57.17;;;23.27;;
43580;SDS011;29175;51.030;4.606;2022-11-20T03:24:28;60.35;;;23.70;;
43580;SDS011;29175;51.030;4.606;2022-11-20T03:26:56;58.60;;;23.58;;
43580;SDS011;29175;51.030;4.606;2022-11-20T03:29:23;55.75;;;22.90;;
43580;SDS011;29175;51.030;4.606;2022-11-20T03:31:49;59.20;;;23.50;;
43580;SDS011;29175;51.030;4.606;2022-11-20T03:34:15;61.90;;;23.73;;
43580;SDS011;29175;51.030;4.606;2022-11-20T03:39:12;60.35;;;24.15;;
43580;SDS011;29175;51.030;4.606;2022-11-20T03:41:39;63.08;;;22.98;;
43580;SDS011;29175;51.030;4.606;2022-11-20T03:44:10;64.40;;;25.52;;
43580;SDS011;29175;51.030;4.606;2022-11-20T03:46:36;72.15;;;25.15;;
43580;SDS011;29175;51.030;4.606;2022-11-20T03:49:03;73.70;;;24.58;;
43580;SDS011;29175;51.030;4.606;2022-11-20T03:51:29;72.13;;;25.50;;
43580;SDS011;29175;51.030;4.606;2022-11-20T03:54:01;60.30;;;25.33;;
43580;SDS011;29175;51.030;4.606;2022-11-20T03:56:29;67.90;;;24.58;;
43580;SDS011;29175;51.030;4.606;2022-11-20T03:58:56;69.13;;;26.10;;
43580;SDS011;29175;51.030;4.606;2022-11-20T04:01:24;71.38;;;25.00;;
43580;SDS011;29175;51.030;4.606;2022-11-20T04:03:55;73.70;;;25.90;;
43580;SDS011;29175;51.030;4.606;2022-11-20T04:06:26;63.63;;;25.55;;
43580;SDS011;29175;51.030;4.606;2022-11-20T04:08:54;68.97;;;25.73;;
43580;SDS011;29175;51.030;4.606;2022-11-20T04:11:21;70.38;;;26.77;;
43580;SDS011;29175;51.030;4.606;2022-11-20T04:13:52;74.00;;;27.58;;
43580;SDS011;29175;51.030;4.606;2022-11-20T04:16:23;72.43;;;26.52;;
43580;SDS011;29175;51.030;4.606;2022-11-20T04:18:53;70.88;;;26.42;;
43580;SDS011;29175;51.030;4.606;2022-11-20T04:21:20;69.00;;;26.77;;
43580;SDS011;29175;51.030;4.606;2022-11-20T04:23:47;72.35;;;26.35;;
43580;SDS011;29175;51.030;4.606;2022-11-20T04:26:13;71.47;;;26.85;;
43580;SDS011;29175;51.030;4.606;2022-11-20T04:28:38;75.40;;;26.77;;
43580;SDS011;29175;51.030;4.606;2022-11-20T04:31:15;70.25;;;26.67;;
43580;SDS011;29175;51.030;4.606;2022-11-20T04:33:52;83.03;;;27.05;;
43580;SDS011;29175;51.030;4.606;2022-11-20T04:36:24;71.72;;;25.67;;
43580;SDS011;29175;51.030;4.606;2022-11-20T04:38:52;71.68;;;28.02;;
43580;SDS011;29175;51.030;4.606;2022-11-20T04:41:22;72.72;;;26.73;;
43580;SDS011;29175;51.030;4.606;2022-11-20T04:43:51;77.05;;;27.45;;
43580;SDS011;29175;51.030;4.606;2022-11-20T04:46:23;76.93;;;26.63;;
43580;SDS011;29175;51.030;4.606;2022-11-20T04:48:55;76.45;;;26.33;;
43580;SDS011;29175;51.030;4.606;2022-11-20T04:51:21;74.25;;;26.13;;
43580;SDS011;29175;51.030;4.606;2022-11-20T04:53:47;77.75;;;26.15;;
43580;SDS011;29175;51.030;4.606;2022-11-20T04:56:16;78.10;;;28.02;;
43580;SDS011;29175;51.030;4.606;2022-11-20T04:58:42;70.60;;;27.63;;
43580;SDS011;29175;51.030;4.606;2022-11-20T05:06:05;72.00;;;25.52;;
43580;SDS011;29175;51.030;4.606;2022-11-20T05:08:31;67.85;;;26.30;;
43580;SDS011;29175;51.030;4.606;2022-11-20T05:11:04;70.43;;;25.65;;
43580;SDS011;29175;51.030;4.606;2022-11-20T05:13:31;73.13;;;26.70;;
43580;SDS011;29175;51.030;4.606;2022-11-20T05:16:05;81.82;;;27.35;;
43580;SDS011;29175;51.030;4.606;2022-11-20T05:18:32;76.22;;;26.25;;
43580;SDS011;29175;51.030;4.606;2022-11-20T05:20:58;74.78;;;27.13;;
43580;SDS011;29175;51.030;4.606;2022-11-20T05:23:24;83.60;;;27.77;;
43580;SDS011;29175;51.030;4.606;2022-11-20T05:25:54;75.55;;;28.02;;
43580;SDS011;29175;51.030;4.606;2022-11-20T05:28:21;71.93;;;26.17;;
43580;SDS011;29175;51.030;4.606;2022-11-20T05:30:47;75.97;;;26.30;;
43580;SDS011;29175;51.030;4.606;2022-11-20T05:33:15;78.88;;;28.35;;
43580;SDS011;29175;51.030;4.606;2022-11-20T05:35:41;77.95;;;27.67;;
43580;SDS011;29175;51.030;4.606;2022-11-20T05:38:10;79.40;;;27.30;;
43580;SDS011;29175;51.030;4.606;2022-11-20T05:40:37;74.40;;;27.87;;
43580;SDS011;29175;51.030;4.606;2022-11-20T05:43:03;76.82;;;28.05;;
43580;SDS011;29175;51.030;4.606;2022-11-20T05:45:29;73.55;;;26.98;;
43580;SDS011;29175;51.030;4.606;2022-11-20T05:47:58;75.93;;;27.85;;
43580;SDS011;29175;51.030;4.606;2022-11-20T05:50:27;73.80;;;28.00;;
43580;SDS011;29175;51.030;4.606;2022-11-20T05:52:53;79.25;;;26.95;;
43580;SDS011;29175;51.030;4.606;2022-11-20T05:55:19;74.07;;;27.80;;
43580;SDS011;29175;51.030;4.606;2022-11-20T05:57:44;77.93;;;27.90;;
43580;SDS011;29175;51.030;4.606;2022-11-20T06:00:10;84.05;;;28.13;;
43580;SDS011;29175;51.030;4.606;2022-11-20T06:02:36;77.28;;;26.83;;
43580;SDS011;29175;51.030;4.606;2022-11-20T06:05:02;70.65;;;26.15;;
43580;SDS011;29175;51.030;4.606;2022-11-20T06:07:27;70.05;;;26.73;;
43580;SDS011;29175;51.030;4.606;2022-11-20T06:09:53;71.00;;;26.40;;
43580;SDS011;29175;51.030;4.606;2022-11-20T06:12:19;67.97;;;24.67;;
43580;SDS011;29175;51.030;4.606;2022-11-20T06:14:44;65.97;;;26.15;;
43580;SDS011;29175;51.030;4.606;2022-11-20T06:17:10;72.88;;;26.55;;
43580;SDS011;29175;51.030;4.606;2022-11-20T06:19:35;64.82;;;25.00;;
43580;SDS011;29175;51.030;4.606;2022-11-20T06:22:01;76.22;;;26.38;;
43580;SDS011;29175;51.030;4.606;2022-11-20T06:24:26;69.45;;;26.33;;
43580;SDS011;29175;51.030;4.606;2022-11-20T06:26:52;75.65;;;27.52;;
43580;SDS011;29175;51.030;4.606;2022-11-20T06:29:18;72.68;;;26.42;;
43580;SDS011;29175;51.030;4.606;2022-11-20T06:31:43;74.28;;;25.73;;
43580;SDS011;29175;51.030;4.606;2022-11-20T06:34:09;70.45;;;26.40;;
43580;SDS011;29175;51.030;4.606;2022-11-20T06:36:35;77.75;;;28.05;;
43580;SDS011;29175;51.030;4.606;2022-11-20T06:39:00;69.13;;;25.42;;
43580;SDS011;29175;51.030;4.606;2022-11-20T06:41:26;72.00;;;27.17;;
43580;SDS011;29175;51.030;4.606;2022-11-20T06:43:52;83.20;;;28.67;;
43580;SDS011;29175;51.030;4.606;2022-11-20T06:46:19;74.85;;;27.05;;
43580;SDS011;29175;51.030;4.606;2022-11-20T06:48:45;79.20;;;27.20;;
43580;SDS011;29175;51.030;4.606;2022-11-20T06:51:13;80.22;;;28.80;;
43580;SDS011;29175;51.030;4.606;2022-11-20T06:53:39;81.35;;;29.80;;
43580;SDS011;29175;51.030;4.606;2022-11-20T06:56:05;75.38;;;28.33;;
43580;SDS011;29175;51.030;4.606;2022-11-20T06:58:32;89.95;;;29.63;;
43580;SDS011;29175;51.030;4.606;2022-11-20T07:00:59;80.60;;;29.70;;
43580;SDS011;29175;51.030;4.606;2022-11-20T07:03:28;93.63;;;30.42;;
43580;SDS011;29175;51.030;4.606;2022-11-20T07:05:55;86.95;;;31.75;;
43580;SDS011;29175;51.030;4.606;2022-11-20T07:08:22;90.68;;;32.25;;
43580;SDS011;29175;51.030;4.606;2022-11-20T07:10:48;90.70;;;31.20;;
43580;SDS011;29175;51.030;4.606;2022-11-20T07:13:14;86.80;;;30.65;;
43580;SDS011;29175;51.030;4.606;2022-11-20T07:15:39;103.78;;;31.65;;
43580;SDS011;29175;51.030;4.606;2022-11-20T07:18:12;97.38;;;30.52;;
43580;SDS011;29175;51.030;4.606;2022-11-20T07:20:38;85.90;;;30.55;;
43580;SDS011;29175;51.030;4.606;2022-11-20T07:23:04;96.63;;;31.92;;
43580;SDS011;29175;51.030;4.606;2022-11-20T07:25:31;92.10;;;31.65;;
43580;SDS011;29175;51.030;4.606;2022-11-20T07:28:00;95.53;;;32.28;;
43580;SDS011;29175;51.030;4.606;2022-11-20T07:30:27;97.30;;;30.42;;
43580;SDS011;29175;51.030;4.606;2022-11-20T07:32:54;86.28;;;30.58;;
43580;SDS011;29175;51.030;4.606;2022-11-20T07:35:21;85.32;;;30.20;;
43580;SDS011;29175;51.030;4.606;2022-11-20T07:37:48;79.10;;;28.13;;
43580;SDS011;29175;51.030;4.606;2022-11-20T07:40:14;82.18;;;28.50;;
43580;SDS011;29175;51.030;4.606;2022-11-20T07:42:47;94.80;;;30.92;;
43580;SDS011;29175;51.030;4.606;2022-11-20T07:45:17;93.63;;;28.73;;
43580;SDS011;29175;51.030;4.606;2022-11-20T07:47:45;87.75;;;28.25;;
43580;SDS011;29175;51.030;4.606;2022-11-20T07:50:12;77.25;;;28.27;;
43580;SDS011;29175;51.030;4.606;2022-11-20T07:52:39;96.28;;;28.92;;
43580;SDS011;29175;51.030;4.606;2022-11-20T07:55:05;81.90;;;28.52;;
43580;SDS011;29175;51.030;4.606;2022-11-20T07:57:31;78.53;;;28.80;;
43580;SDS011;29175;51.030;4.606;2022-11-20T07:59:58;90.53;;;28.95;;
43580;SDS011;29175;51.030;4.606;2022-11-20T08:02:24;77.65;;;27.17;;
43580;SDS011;29175;51.030;4.606;2022-11-20T08:04:49;93.00;;;29.50;;
43580;SDS011;29175;51.030;4.606;2022-11-20T08:07:17;79.00;;;29.02;;
43580;SDS011;29175;51.030;4.606;2022-11-20T08:09:43;76.05;;;28.00;;
43580;SDS011;29175;51.030;4.606;2022-11-20T08:12:10;87.55;;;29.77;;
43580;SDS011;29175;51.030;4.606;2022-11-20T08:15:04;84.72;;;30.20;;
43580;SDS011;29175;51.030;4.606;2022-11-20T08:17:30;96.13;;;29.92;;
43580;SDS011;29175;51.030;4.606;2022-11-20T08:19:56;86.60;;;28.17;;
43580;SDS011;29175;51.030;4.606;2022-11-20T08:22:22;85.53;;;28.27;;
43580;SDS011;29175;51.030;4.606;2022-11-20T08:24:48;77.95;;;28.63;;
43580;SDS011;29175;51.030;4.606;2022-11-20T08:27:15;78.63;;;27.70;;
43580;SDS011;29175;51.030;4.606;2022-11-20T08:29:41;86.55;;;30.85;;
43580;SDS011;29175;51.030;4.606;2022-11-20T08:32:08;89.40;;;30.73;;
43580;SDS011;29175;51.030;4.606;2022-11-20T08:34:34;76.30;;;28.10;;
43580;SDS011;29175;51.030;4.606;2022-11-20T08:37:01;93.03;;;30.38;;
43580;SDS011;29175;51.030;4.606;2022-11-20T08:39:27;82.50;;;29.10;;
43580;SDS011;29175;51.030;4.606;2022-11-20T08:41:54;92.18;;;27.10;;
43580;SDS011;29175;51.030;4.606;2022-11-20T08:44:20;91.53;;;30.55;;
43580;SDS011;29175;51.030;4.606;2022-11-20T08:46:45;74.15;;;27.85;;
43580;SDS011;29175;51.030;4.606;2022-11-20T08:49:12;83.22;;;28.23;;
43580;SDS011;29175;51.030;4.606;2022-11-20T08:51:40;93.50;;;29.15;;
43580;SDS011;29175;51.030;4.606;2022-11-20T08:54:07;93.40;;;29.25;;
43580;SDS011;29175;51.030;4.606;2022-11-20T08:56:34;85.95;;;27.63;;
43580;SDS011;29175;51.030;4.606;2022-11-20T08:59:01;87.90;;;29.30;;
43580;SDS011;29175;51.030;4.606;2022-11-20T09:01:28;86.18;;;29.42;;
43580;SDS011;29175;51.030;4.606;2022-11-20T09:03:57;83.72;;;29.50;;
43580;SDS011;29175;51.030;4.606;2022-11-20T09:06:24;95.40;;;29.25;;
43580;SDS011;29175;51.030;4.606;2022-11-20T09:08:53;91.68;;;32.10;;
43580;SDS011;29175;51.030;4.606;2022-11-20T09:11:20;101.80;;;30.17;;
43580;SDS011;29175;51.030;4.606;2022-11-20T09:13:48;106.18;;;30.80;;
43580;SDS011;29175;51.030;4.606;2022-11-20T09:16:14;84.93;;;27.80;;
43580;SDS011;29175;51.030;4.606;2022-11-20T09:18:41;95.65;;;30.17;;
43580;SDS011;29175;51.030;4.606;2022-11-20T09:21:09;88.28;;;29.30;;
43580;SDS011;29175;51.030;4.606;2022-11-20T09:23:37;93.32;;;30.70;;
43580;SDS011;29175;51.030;4.606;2022-11-20T09:26:04;98.57;;;30.10;;
43580;SDS011;29175;51.030;4.606;2022-11-20T09:28:30;102.65;;;32.13;;
43580;SDS011;29175;51.030;4.606;2022-11-20T09:30:57;111.70;;;30.77;;
43580;SDS011;29175;51.030;4.606;2022-11-20T09:33:23;93.90;;;29.50;;
43580;SDS011;29175;51.030;4.606;2022-11-20T09:35:48;104.13;;;31.52;;
43580;SDS011;29175;51.030;4.606;2022-11-20T09:38:14;104.85;;;32.88;;
43580;SDS011;29175;51.030;4.606;2022-11-20T09:56:56;101.78;;;31.70;;
43580;SDS011;29175;51.030;4.606;2022-11-20T10:02:23;107.25;;;31.63;;
43580;SDS011;29175;51.030;4.606;2022-11-20T10:07:47;99.40;;;30.15;;
43580;SDS011;29175;51.030;4.606;2022-11-20T10:10:28;105.63;;;32.30;;
43580;SDS011;29175;51.030;4.606;2022-11-20T10:18:42;104.72;;;29.50;;
43580;SDS011;29175;51.030;4.606;2022-11-20T10:24:37;99.55;;;30.52;;
43580;SDS011;29175;51.030;4.606;2022-11-20T10:32:43;90.30;;;29.00;;
43580;SDS011;29175;51.030;4.606;2022-11-20T10:37:49;93.30;;;30.33;;
43580;SDS011;29175;51.030;4.606;2022-11-20T10:40:38;92.28;;;29.15;;
43580;SDS011;29175;51.030;4.606;2022-11-20T10:43:13;99.60;;;28.00;;
43580;SDS011;29175;51.030;4.606;2022-11-20T10:48:24;87.53;;;28.33;;
43580;SDS011;29175;51.030;4.606;2022-11-20T11:01:25;77.47;;;24.27;;
43580;SDS011;29175;51.030;4.606;2022-11-20T11:03:52;82.22;;;24.88;;
43580;SDS011;29175;51.030;4.606;2022-11-20T11:06:36;74.20;;;23.55;;
43580;SDS011;29175;51.030;4.606;2022-11-20T11:09:10;74.97;;;23.60;;
43580;SDS011;29175;51.030;4.606;2022-11-20T11:11:45;72.22;;;22.88;;
43580;SDS011;29175;51.030;4.606;2022-11-20T11:14:14;72.20;;;24.33;;
43580;SDS011;29175;51.030;4.606;2022-11-20T11:16:52;64.78;;;23.10;;
43580;SDS011;29175;51.030;4.606;2022-11-20T11:19:19;67.95;;;22.90;;
43580;SDS011;29175;51.030;4.606;2022-11-20T11:21:55;60.08;;;21.40;;
43580;SDS011;29175;51.030;4.606;2022-11-20T11:24:28;63.97;;;21.63;;
43580;SDS011;29175;51.030;4.606;2022-11-20T11:27:03;69.43;;;22.92;;
43580;SDS011;29175;51.030;4.606;2022-11-20T11:29:35;73.85;;;22.35;;
43580;SDS011;29175;51.030;4.606;2022-11-20T11:32:12;59.90;;;20.35;;
43580;SDS011;29175;51.030;4.606;2022-11-20T11:34:39;68.95;;;20.48;;
43580;SDS011;29175;51.030;4.606;2022-11-20T11:37:17;53.60;;;19.25;;
43580;SDS011;29175;51.030;4.606;2022-11-20T11:39:46;54.35;;;19.15;;
43580;SDS011;29175;51.030;4.606;2022-11-20T11:42:15;53.05;;;18.85;;
43580;SDS011;29175;51.030;4.606;2022-11-20T11:44:46;50.10;;;18.05;;
43580;SDS011;29175;51.030;4.606;2022-11-20T11:47:33;61.17;;;19.92;;
43580;SDS011;29175;51.030;4.606;2022-11-20T11:52:48;52.00;;;17.77;;
43580;SDS011;29175;51.030;4.606;2022-11-20T11:55:39;47.45;;;16.42;;
43580;SDS011;29175;51.030;4.606;2022-11-20T12:03:55;54.95;;;17.73;;
43580;SDS011;29175;51.030;4.606;2022-11-20T12:06:41;36.65;;;15.00;;
43580;SDS011;29175;51.030;4.606;2022-11-20T12:09:10;34.58;;;11.95;;
43580;SDS011;29175;51.030;4.606;2022-11-20T12:11:45;37.58;;;11.95;;
43580;SDS011;29175;51.030;4.606;2022-11-20T12:14:20;32.45;;;11.65;;
43580;SDS011;29175;51.030;4.606;2022-11-20T12:16:54;22.98;;;8.30;;
43580;SDS011;29175;51.030;4.606;2022-11-20T12:19:22;16.88;;;6.40;;
43580;SDS011;29175;51.030;4.606;2022-11-20T12:21:56;20.58;;;5.55;;
43580;SDS011;29175;51.030;4.606;2022-11-20T12:24:44;13.00;;;6.47;;
43580;SDS011;29175;51.030;4.606;2022-11-20T12:30:08;13.23;;;4.97;;
43580;SDS011;29175;51.030;4.606;2022-11-20T12:43:34;7.18;;;3.67;;
43580;SDS011;29175;51.030;4.606;2022-11-20T12:49:08;16.90;;;4.63;;
43580;SDS011;29175;51.030;4.606;2022-11-20T13:00:09;11.77;;;5.50;;
43580;SDS011;29175;51.030;4.606;2022-11-20T13:11:07;11.70;;;5.22;;
43580;SDS011;29175;51.030;4.606;2022-11-20T13:18:41;22.02;;;9.07;;
43580;SDS011;29175;51.030;4.606;2022-11-20T13:21:20;13.98;;;6.18;;
43580;SDS011;29175;51.030;4.606;2022-11-20T13:24:06;12.77;;;5.97;;
43580;SDS011;29175;51.030;4.606;2022-11-20T13:26:32;22.17;;;5.75;;
43580;SDS011;29175;51.030;4.606;2022-11-20T13:29:01;19.77;;;6.68;;
43580;SDS011;29175;51.030;4.606;2022-11-20T13:31:43;20.08;;;6.28;;
43580;SDS011;29175;51.030;4.606;2022-11-20T13:34:12;15.63;;;5.63;;
43580;SDS011;29175;51.030;4.606;2022-11-20T13:36:51;15.25;;;7.05;;
43580;SDS011;29175;51.030;4.606;2022-11-20T13:39:28;17.05;;;6.43;;
43580;SDS011;29175;51.030;4.606;2022-11-20T13:42:00;13.48;;;6.30;;
43580;SDS011;29175;51.030;4.606;2022-11-20T13:44:41;12.23;;;4.97;;
43580;SDS011;29175;51.030;4.606;2022-11-20T13:47:27;9.15;;;5.13;;
43580;SDS011;29175;51.030;4.606;2022-11-20T13:49:55;12.43;;;4.60;;
43580;SDS011;29175;51.030;4.606;2022-11-20T14:03:34;9.52;;;4.85;;
43580;SDS011;29175;51.030;4.606;2022-11-20T14:06:04;10.90;;;4.97;;
43580;SDS011;29175;51.030;4.606;2022-11-20T14:08:37;10.95;;;5.13;;
43580;SDS011;29175;51.030;4.606;2022-11-20T14:11:17;12.25;;;5.53;;
43580;SDS011;29175;51.030;4.606;2022-11-20T14:16:20;13.25;;;5.18;;
43580;SDS011;29175;51.030;4.606;2022-11-20T14:18:46;15.23;;;5.15;;
43580;SDS011;29175;51.030;4.606;2022-11-20T14:21:20;12.30;;;5.40;;
43580;SDS011;29175;51.030;4.606;2022-11-20T14:24:09;11.00;;;5.00;;
43580;SDS011;29175;51.030;4.606;2022-11-20T14:26:36;18.08;;;7.00;;
43580;SDS011;29175;51.030;4.606;2022-11-20T14:31:37;14.02;;;8.20;;
43580;SDS011;29175;51.030;4.606;2022-11-20T14:34:02;18.40;;;8.00;;
43580;SDS011;29175;51.030;4.606;2022-11-20T14:36:28;19.17;;;10.27;;
43580;SDS011;29175;51.030;4.606;2022-11-20T14:38:54;15.05;;;7.18;;
43580;SDS011;29175;51.030;4.606;2022-11-20T14:41:20;11.77;;;5.57;;
43580;SDS011;29175;51.030;4.606;2022-11-20T14:43:48;9.43;;;4.60;;
43580;SDS011;29175;51.030;4.606;2022-11-20T14:46:22;11.45;;;4.72;;
43580;SDS011;29175;51.030;4.606;2022-11-20T14:48:53;8.38;;;3.97;;
43580;SDS011;29175;51.030;4.606;2022-11-20T14:51:34;7.13;;;4.00;;
43580;SDS011;29175;51.030;4.606;2022-11-20T14:54:14;7.32;;;4.32;;
43580;SDS011;29175;51.030;4.606;2022-11-20T14:56:41;8.00;;;3.92;;
43580;SDS011;29175;51.030;4.606;2022-11-20T14:59:22;6.93;;;4.00;;
43580;SDS011;29175;51.030;4.606;2022-11-20T15:02:01;11.32;;;4.10;;
43580;SDS011;29175;51.030;4.606;2022-11-20T15:04:31;7.28;;;4.10;;
43580;SDS011;29175;51.030;4.606;2022-11-20T15:06:58;7.28;;;3.83;;
43580;SDS011;29175;51.030;4.606;2022-11-20T15:09:24;6.70;;;3.92;;
43580;SDS011;29175;51.030;4.606;2022-11-20T15:12:02;7.30;;;3.60;;
43580;SDS011;29175;51.030;4.606;2022-11-20T15:14:29;8.82;;;4.68;;
43580;SDS011;29175;51.030;4.606;2022-11-20T15:16:57;8.35;;;4.22;;
43580;SDS011;29175;51.030;4.606;2022-11-20T15:19:24;6.90;;;4.60;;
43580;SDS011;29175;51.030;4.606;2022-11-20T15:21:51;10.75;;;5.53;;
43580;SDS011;29175;51.030;4.606;2022-11-20T15:24:17;9.82;;;5.07;;
43580;SDS011;29175;51.030;4.606;2022-11-20T15:26:43;7.20;;;5.15;;
43580;SDS011;29175;51.030;4.606;2022-11-20T15:29:13;9.65;;;4.63;;
43580;SDS011;29175;51.030;4.606;2022-11-20T15:31:43;6.47;;;4.00;;
43580;SDS011;29175;51.030;4.606;2022-11-20T15:34:16;8.82;;;5.10;;
43580;SDS011;29175;51.030;4.606;2022-11-20T15:36:42;9.43;;;5.45;;
43580;SDS011;29175;51.030;4.606;2022-11-20T15:39:08;8.00;;;4.75;;
43580;SDS011;29175;51.030;4.606;2022-11-20T15:41:35;8.35;;;4.70;;
43580;SDS011;29175;51.030;4.606;2022-11-20T15:44:02;9.85;;;5.15;;
43580;SDS011;29175;51.030;4.606;2022-11-20T15:46:32;9.38;;;4.93;;
43580;SDS011;29175;51.030;4.606;2022-11-20T15:49:06;10.85;;;5.70;;
43580;SDS011;29175;51.030;4.606;2022-11-20T15:51:37;12.60;;;6.25;;
43580;SDS011;29175;51.030;4.606;2022-11-20T15:54:26;11.15;;;5.90;;
43580;SDS011;29175;51.030;4.606;2022-11-20T15:56:51;11.70;;;5.13;;
43580;SDS011;29175;51.030;4.606;2022-11-20T15:59:17;11.70;;;6.13;;
43580;SDS011;29175;51.030;4.606;2022-11-20T16:01:43;9.20;;;5.60;;
43580;SDS011;29175;51.030;4.606;2022-11-20T16:04:12;11.07;;;5.72;;
43580;SDS011;29175;51.030;4.606;2022-11-20T16:06:40;10.13;;;5.20;;
43580;SDS011;29175;51.030;4.606;2022-11-20T16:09:06;14.25;;;6.05;;
43580;SDS011;29175;51.030;4.606;2022-11-20T16:11:32;17.63;;;5.88;;
43580;SDS011;29175;51.030;4.606;2022-11-20T16:13:58;14.52;;;6.18;;
43580;SDS011;29175;51.030;4.606;2022-11-20T16:16:42;14.85;;;6.10;;
43580;SDS011;29175;51.030;4.606;2022-11-20T16:19:14;13.63;;;5.72;;
43580;SDS011;29175;51.030;4.606;2022-11-20T16:21:41;14.50;;;5.80;;
43580;SDS011;29175;51.030;4.606;2022-11-20T16:24:08;14.63;;;5.65;;
43580;SDS011;29175;51.030;4.606;2022-11-20T16:26:36;28.48;;;6.90;;
43580;SDS011;29175;51.030;4.606;2022-11-20T16:29:02;15.90;;;6.10;;
43580;SDS011;29175;51.030;4.606;2022-11-20T16:31:29;16.88;;;5.78;;
43580;SDS011;29175;51.030;4.606;2022-11-20T16:33:56;20.95;;;6.30;;
43580;SDS011;29175;51.030;4.606;2022-11-20T16:36:24;22.50;;;6.35;;
43580;SDS011;29175;51.030;4.606;2022-11-20T16:38:54;17.77;;;5.68;;
43580;SDS011;29175;51.030;4.606;2022-11-20T16:41:22;20.13;;;6.55;;
43580;SDS011;29175;51.030;4.606;2022-11-20T16:43:48;22.88;;;5.80;;
43580;SDS011;29175;51.030;4.606;2022-11-20T16:46:19;20.80;;;6.80;;
43580;SDS011;29175;51.030;4.606;2022-11-20T16:48:52;20.10;;;5.88;;
43580;SDS011;29175;51.030;4.606;2022-11-20T16:51:22;18.05;;;5.90;;
43580;SDS011;29175;51.030;4.606;2022-11-20T16:53:48;16.70;;;5.97;;